Time;durP1;ratioP1;P1;durP2;ratioP2;P2;SDS_P1;SDS_P2;PMS_P1;PMS_P2;Temp;Humidity;BMP_temperature;BMP_pressure;BME280_temperature;BME280_humidity;BME280_pressure;Samples;Min_cycle;Max_cycle;Signal;HPM_P1;HPM_P2
2023/12/02 00:01:37;;;;;;;34.15;16.83;;;0.70;99.90;;;;;;5063098;28;20093;-76
2023/12/02 00:04:03;;;;;;;32.60;15.65;;;0.70;99.90;;;;;;5046941;28;20032;-76
2023/12/02 00:06:28;;;;;;;25.75;13.38;;;0.70;99.90;;;;;;5065615;28;20562;-76
2023/12/02 00:08:54;;;;;;;28.52;14.57;;;0.70;99.90;;;;;;5065558;28;20517;-76
2023/12/02 00:11:20;;;;;;;29.90;14.95;;;0.70;99.90;;;;;;5065313;28;20099;-76
2023/12/02 00:13:46;;;;;;;30.67;14.27;;;0.80;99.90;;;;;;5065234;28;20512;-76
2023/12/02 00:16:12;;;;;;;30.38;15.80;;;0.70;99.90;;;;;;5062350;28;20025;-75
2023/12/02 00:18:38;;;;;;;28.20;14.10;;;0.70;99.90;;;;;;5065522;28;20791;-76
2023/12/02 00:21:03;;;;;;;29.67;14.18;;;0.70;99.90;;;;;;5065167;28;20549;-75
2023/12/02 00:23:29;;;;;;;33.35;16.00;;;0.70;99.90;;;;;;5065114;28;20032;-75
2023/12/02 00:25:55;;;;;;;31.55;15.85;;;0.70;99.90;;;;;;5065039;28;20083;-75
2023/12/02 00:28:20;;;;;;;30.05;15.60;;;0.70;99.90;;;;;;5065593;28;20056;-75
2023/12/02 00:30:46;;;;;;;30.88;15.45;;;0.70;99.90;;;;;;5064341;28;20063;-75
2023/12/02 00:33:13;;;;;;;29.08;14.00;;;0.70;99.90;;;;;;5061793;28;20091;-76
2023/12/02 00:35:38;;;;;;;30.45;14.13;;;0.70;99.90;;;;;;5063214;28;20066;-75
2023/12/02 00:38:04;;;;;;;32.90;15.43;;;0.70;99.90;;;;;;5064082;28;20024;-75
2023/12/02 00:40:30;;;;;;;30.88;14.75;;;0.70;99.90;;;;;;5063444;28;20048;-75
2023/12/02 00:42:55;;;;;;;25.25;13.02;;;0.60;99.90;;;;;;5064623;28;20281;-76
2023/12/02 00:45:21;;;;;;;27.33;13.35;;;0.60;99.90;;;;;;5065051;28;20020;-75
2023/12/02 00:47:47;;;;;;;28.02;14.35;;;0.60;99.90;;;;;;5065866;28;20037;-75
2023/12/02 00:50:13;;;;;;;29.38;13.82;;;0.60;99.90;;;;;;5068948;28;20062;-75
2023/12/02 00:52:38;;;;;;;29.73;15.07;;;0.70;99.90;;;;;;5068690;28;20103;-76
2023/12/02 00:55:05;;;;;;;29.75;13.98;;;0.60;99.90;;;;;;5067917;28;20103;-75
2023/12/02 00:57:30;;;;;;;30.85;14.60;;;0.60;99.90;;;;;;5068487;28;20035;-76
2023/12/02 00:59:56;;;;;;;27.30;13.52;;;0.60;99.90;;;;;;5068737;28;20017;-76
2023/12/02 01:02:22;;;;;;;28.10;14.25;;;0.60;99.90;;;;;;5068516;28;20023;-76
2023/12/02 01:04:47;;;;;;;30.08;14.77;;;0.60;99.90;;;;;;5069067;28;20405;-76
2023/12/02 01:07:13;;;;;;;28.30;14.13;;;0.60;99.90;;;;;;5050405;28;20473;-76
2023/12/02 01:09:38;;;;;;;24.52;12.18;;;0.60;99.90;;;;;;5066515;28;20111;-76
2023/12/02 01:12:04;;;;;;;26.98;14.27;;;0.60;99.90;;;;;;5066545;28;20028;-76
2023/12/02 01:14:33;;;;;;;28.98;14.73;;;0.70;99.90;;;;;;5068304;28;20032;-76
2023/12/02 01:16:59;;;;;;;29.98;14.85;;;0.60;99.90;;;;;;5066063;28;20176;-76
2023/12/02 01:19:24;;;;;;;28.77;14.30;;;0.60;99.90;;;;;;5050595;28;20025;-75
2023/12/02 01:21:50;;;;;;;28.50;14.02;;;0.60;99.90;;;;;;5066219;28;20529;-75
2023/12/02 01:24:16;;;;;;;27.08;13.38;;;0.60;99.90;;;;;;5066024;28;20466;-75
2023/12/02 01:26:42;;;;;;;25.70;12.77;;;0.60;99.90;;;;;;5067555;28;20050;-75
2023/12/02 01:29:08;;;;;;;24.05;12.95;;;0.60;99.90;;;;;;5042707;28;20473;-75
2023/12/02 01:31:34;;;;;;;28.75;14.38;;;0.60;99.90;;;;;;5067089;28;20519;-76
2023/12/02 01:33:59;;;;;;;25.58;12.95;;;0.60;99.90;;;;;;5063611;28;20021;-75
2023/12/02 01:36:25;;;;;;;27.63;13.55;;;0.60;99.90;;;;;;5049837;28;20167;-75
2023/12/02 01:38:50;;;;;;;28.77;14.32;;;0.50;99.90;;;;;;5067452;28;20052;-75
2023/12/02 01:41:16;;;;;;;27.55;13.65;;;0.50;99.90;;;;;;5067936;28;20055;-75
2023/12/02 01:43:41;;;;;;;32.78;14.18;;;0.50;99.90;;;;;;5066521;28;20048;-76
2023/12/02 01:46:07;;;;;;;28.58;13.93;;;0.50;99.90;;;;;;5067361;28;20397;-75
2023/12/02 01:48:34;;;;;;;25.73;12.52;;;0.50;99.90;;;;;;5067655;28;20024;-76
2023/12/02 01:51:00;;;;;;;28.63;13.48;;;0.50;99.90;;;;;;5049572;28;20024;-75
2023/12/02 01:53:26;;;;;;;26.05;13.40;;;0.50;99.90;;;;;;5068060;28;20389;-75
2023/12/02 01:55:52;;;;;;;29.27;14.10;;;0.50;99.90;;;;;;5067901;28;20025;-75
2023/12/02 01:58:19;;;;;;;30.13;14.38;;;0.50;99.90;;;;;;5067407;28;20025;-75
2023/12/02 02:00:45;;;;;;;27.48;13.52;;;0.60;99.90;;;;;;5045635;28;20143;-75
2023/12/02 02:03:10;;;;;;;29.17;13.80;;;0.60;99.90;;;;;;5048751;28;20234;-75
2023/12/02 02:05:37;;;;;;;30.02;14.15;;;0.60;99.90;;;;;;5067867;28;20322;-75
2023/12/02 02:08:02;;;;;;;27.80;13.73;;;0.60;99.90;;;;;;5065398;28;20008;-74
2023/12/02 02:10:28;;;;;;;28.10;13.25;;;0.60;99.90;;;;;;5066671;28;20432;-75
2023/12/02 02:12:54;;;;;;;29.23;13.95;;;0.60;99.90;;;;;;5067217;28;20082;-75
2023/12/02 02:15:32;;;;;;;28.13;13.90;;;0.60;99.90;;;;;;5064827;28;20202;-75
2023/12/02 02:17:58;;;;;;;27.23;13.40;;;0.50;99.90;;;;;;5041942;28;20009;-75
2023/12/02 02:20:23;;;;;;;26.30;12.55;;;0.50;99.90;;;;;;5065509;28;20090;-75
2023/12/02 02:22:49;;;;;;;24.00;12.32;;;0.50;99.90;;;;;;5066382;28;20023;-75
2023/12/02 02:25:14;;;;;;;24.35;11.35;;;0.50;99.90;;;;;;5049623;28;20486;-75
2023/12/02 02:27:40;;;;;;;26.35;12.32;;;0.50;99.90;;;;;;5066856;28;20442;-75
2023/12/02 02:30:07;;;;;;;26.90;14.32;;;0.50;99.90;;;;;;5065853;28;20647;-75
2023/12/02 02:32:35;;;;;;;27.02;13.18;;;0.50;99.90;;;;;;5064393;28;20020;-75
2023/12/02 02:35:01;;;;;;;21.30;11.15;;;0.40;99.90;;;;;;5066201;28;20032;-75
2023/12/02 02:37:28;;;;;;;29.27;13.75;;;0.30;99.90;;;;;;5048591;28;20020;-74
2023/12/02 02:39:54;;;;;;;27.75;14.32;;;0.30;99.90;;;;;;5067134;28;20194;-75
2023/12/02 02:42:19;;;;;;;27.13;12.88;;;0.40;99.90;;;;;;5065184;28;20111;-75
2023/12/02 02:44:45;;;;;;;27.20;13.00;;;0.40;99.90;;;;;;5066286;28;20040;-75
2023/12/02 02:47:11;;;;;;;26.60;13.57;;;0.40;99.90;;;;;;5067303;28;20025;-75
2023/12/02 02:49:37;;;;;;;25.10;11.95;;;0.50;99.90;;;;;;5067289;28;20114;-75
2023/12/02 02:52:03;;;;;;;26.83;13.15;;;0.50;99.90;;;;;;5062519;28;20397;-75
2023/12/02 02:54:28;;;;;;;26.70;12.90;;;0.50;99.90;;;;;;5065819;28;20029;-74
2023/12/02 02:56:54;;;;;;;25.35;12.18;;;0.50;99.90;;;;;;5065600;28;20019;-75
2023/12/02 02:59:20;;;;;;;29.08;13.32;;;0.50;99.90;;;;;;5048557;28;20107;-75
2023/12/02 03:01:47;;;;;;;27.02;13.88;;;0.50;99.90;;;;;;5043854;28;20016;-75
2023/12/02 03:04:14;;;;;;;26.85;13.32;;;0.60;99.90;;;;;;5065597;28;20017;-75
2023/12/02 03:06:40;;;;;;;25.98;13.30;;;0.60;99.90;;;;;;5064806;28;20082;-75
2023/12/02 03:09:06;;;;;;;27.02;14.50;;;0.60;99.90;;;;;;5065632;28;20100;-74
2023/12/02 03:11:32;;;;;;;25.48;13.65;;;0.50;99.90;;;;;;5064607;28;20174;-75
2023/12/02 03:13:58;;;;;;;25.83;13.07;;;0.50;99.90;;;;;;5064764;28;20489;-75
2023/12/02 03:16:24;;;;;;;26.15;13.40;;;0.50;99.90;;;;;;5066411;28;20032;-75
2023/12/02 03:18:49;;;;;;;29.75;14.63;;;0.50;99.90;;;;;;5066079;28;20074;-75
2023/12/02 03:21:15;;;;;;;23.33;11.80;;;0.50;99.90;;;;;;5064502;28;20038;-75
2023/12/02 03:23:41;;;;;;;26.98;13.07;;;0.50;99.90;;;;;;5066367;28;20013;-75
2023/12/02 03:26:06;;;;;;;29.75;14.75;;;0.50;99.90;;;;;;5066394;28;20443;-75
2023/12/02 03:28:32;;;;;;;25.65;13.00;;;0.50;99.90;;;;;;5066048;28;20392;-75
2023/12/02 03:30:59;;;;;;;26.80;12.40;;;0.50;99.90;;;;;;5060962;28;20023;-74
2023/12/02 03:33:25;;;;;;;26.80;13.35;;;0.50;99.90;;;;;;5065006;28;20029;-74
2023/12/02 03:35:51;;;;;;;27.23;13.23;;;0.50;99.90;;;;;;5047984;28;20013;-75
2023/12/02 03:38:16;;;;;;;27.77;14.02;;;0.50;99.90;;;;;;5063619;28;20021;-75
2023/12/02 03:40:42;;;;;;;26.70;13.27;;;0.50;99.90;;;;;;5065648;28;20063;-75
2023/12/02 03:43:08;;;;;;;23.95;12.93;;;0.40;99.90;;;;;;5062600;28;20027;-75
2023/12/02 03:45:33;;;;;;;27.35;13.65;;;0.30;99.90;;;;;;5059400;28;20520;-74
2023/12/02 03:47:59;;;;;;;26.10;13.00;;;0.30;99.90;;;;;;5065578;28;20142;-74
2023/12/02 03:50:25;;;;;;;27.05;14.55;;;0.10;99.90;;;;;;5063544;28;20029;-75
2023/12/02 03:52:50;;;;;;;27.67;14.02;;;0.10;99.90;;;;;;5063882;28;20031;-74
2023/12/02 03:55:18;;;;;;;26.33;13.50;;;0.00;99.90;;;;;;5064180;28;20477;-74
2023/12/02 03:57:44;;;;;;;27.63;13.00;;;0.00;99.90;;;;;;5064695;28;20155;-74
2023/12/02 04:00:13;;;;;;;26.42;13.63;;;0.00;99.90;;;;;;5046634;28;20115;-74
2023/12/02 04:02:40;;;;;;;28.23;14.45;;;-0.10;99.90;;;;;;5065316;28;20021;-74
2023/12/02 04:05:10;;;;;;;28.75;14.38;;;0.00;99.90;;;;;;5065727;28;20200;-75
2023/12/02 04:07:36;;;;;;;28.85;14.23;;;-0.10;99.90;;;;;;5062756;28;20031;-74
2023/12/02 04:10:03;;;;;;;25.10;12.98;;;-0.10;99.90;;;;;;5065601;28;20111;-75
2023/12/02 04:12:32;;;;;;;28.52;13.48;;;-0.10;99.90;;;;;;5065265;28;20120;-74
2023/12/02 04:14:57;;;;;;;30.70;14.57;;;-0.10;99.90;;;;;;5047033;28;20016;-74
2023/12/02 04:17:23;;;;;;;26.42;12.95;;;-0.10;99.90;;;;;;5065363;28;20037;-74
2023/12/02 04:19:49;;;;;;;25.13;13.02;;;-0.10;99.90;;;;;;5064694;28;20563;-75
2023/12/02 04:22:16;;;;;;;25.33;12.80;;;0.00;99.90;;;;;;5063438;28;20047;-80
2023/12/02 04:24:41;;;;;;;27.13;12.77;;;0.00;99.90;;;;;;5047073;28;20024;-74
2023/12/02 04:27:07;;;;;;;24.42;13.32;;;0.10;99.90;;;;;;5063099;28;20024;-73
2023/12/02 04:29:36;;;;;;;26.40;13.18;;;0.10;99.90;;;;;;5063259;28;20421;-74
2023/12/02 04:32:03;;;;;;;26.60;12.80;;;0.20;99.90;;;;;;5062772;28;20016;-74
2023/12/02 04:34:29;;;;;;;26.83;13.23;;;0.20;99.90;;;;;;5062664;28;20028;-74
2023/12/02 04:36:55;;;;;;;27.45;13.95;;;0.20;99.90;;;;;;5065615;28;20162;-74
2023/12/02 04:39:21;;;;;;;24.75;12.90;;;0.20;99.90;;;;;;5064606;28;20457;-74
2023/12/02 04:41:47;;;;;;;24.52;12.98;;;0.20;99.90;;;;;;5063150;28;20056;-74
2023/12/02 04:44:13;;;;;;;28.52;14.02;;;0.20;99.90;;;;;;5064367;28;20016;-74
2023/12/02 04:46:41;;;;;;;27.40;14.38;;;0.20;99.90;;;;;;5064009;28;20105;-75
2023/12/02 04:49:07;;;;;;;30.17;14.38;;;0.20;99.90;;;;;;5061507;28;20031;-74
2023/12/02 04:51:33;;;;;;;28.75;14.13;;;0.10;99.90;;;;;;5061180;28;20025;-74
2023/12/02 04:53:58;;;;;;;30.40;14.13;;;0.00;99.90;;;;;;5040410;28;20108;-73
2023/12/02 04:56:24;;;;;;;26.67;13.27;;;0.00;99.90;;;;;;5063678;28;20024;-74
2023/12/02 04:58:50;;;;;;;26.73;14.02;;;0.00;99.90;;;;;;5044114;28;20044;-74
2023/12/02 05:01:15;;;;;;;28.80;14.20;;;-0.10;99.90;;;;;;5064515;28;20329;-76
2023/12/02 05:03:41;;;;;;;31.27;15.43;;;-0.20;99.90;;;;;;5046640;28;20042;-73
2023/12/02 05:06:11;;;;;;;30.08;15.00;;;-0.20;99.90;;;;;;5064954;28;20024;-74
2023/12/02 05:08:38;;;;;;;29.45;14.13;;;-0.30;99.90;;;;;;5063659;28;20024;-74
2023/12/02 05:11:07;;;;;;;27.63;14.18;;;-0.30;99.90;;;;;;5063574;28;20024;-74
2023/12/02 05:13:32;;;;;;;26.88;13.57;;;-0.30;99.90;;;;;;5063187;28;21990;-74
2023/12/02 05:15:58;;;;;;;27.42;14.25;;;-0.40;99.90;;;;;;5044994;28;20116;-74
2023/12/02 05:18:24;;;;;;;27.42;12.82;;;-0.30;99.90;;;;;;5063222;28;20017;-74
2023/12/02 05:20:49;;;;;;;28.45;14.30;;;-0.30;99.90;;;;;;5062851;28;20462;-73
2023/12/02 05:23:15;;;;;;;28.08;12.95;;;-0.20;99.90;;;;;;5063818;28;20029;-74
2023/12/02 05:25:41;;;;;;;27.92;13.35;;;-0.30;99.90;;;;;;5064671;28;20812;-74
2023/12/02 05:28:07;;;;;;;28.23;13.57;;;-0.20;99.90;;;;;;5062436;28;20024;-74
2023/12/02 05:30:34;;;;;;;27.60;13.43;;;-0.30;99.90;;;;;;5044966;28;20318;-74
2023/12/02 05:33:00;;;;;;;28.15;13.93;;;-0.20;99.90;;;;;;5045115;28;20067;-74
2023/12/02 05:35:26;;;;;;;28.65;13.80;;;-0.20;99.90;;;;;;5068038;28;20032;-74
2023/12/02 05:37:52;;;;;;;25.75;12.98;;;-0.30;99.90;;;;;;5064444;28;20498;-74
2023/12/02 05:40:17;;;;;;;26.20;12.13;;;-0.20;99.90;;;;;;5064022;28;20055;-74
2023/12/02 05:42:43;;;;;;;25.10;13.05;;;-0.20;99.90;;;;;;5064896;28;20371;-74
2023/12/02 05:45:09;;;;;;;24.35;12.35;;;-0.20;99.90;;;;;;5066394;28;20086;-74
2023/12/02 05:47:35;;;;;;;27.77;12.95;;;-0.10;99.90;;;;;;5064974;28;20035;-73
2023/12/02 05:50:01;;;;;;;27.70;13.32;;;-0.10;99.90;;;;;;5044142;28;20477;-74
2023/12/02 05:52:27;;;;;;;26.55;13.20;;;-0.10;99.90;;;;;;5066363;28;20038;-74
2023/12/02 05:54:53;;;;;;;28.63;13.45;;;-0.10;99.90;;;;;;5061650;28;20029;-74
2023/12/02 05:57:18;;;;;;;29.65;14.20;;;-0.10;99.90;;;;;;5065810;28;20013;-74
2023/12/02 05:59:44;;;;;;;26.42;14.15;;;-0.10;99.90;;;;;;5062569;28;20021;-74
2023/12/02 06:02:10;;;;;;;30.52;15.65;;;-0.10;99.90;;;;;;5067947;28;20024;-74
2023/12/02 06:04:36;;;;;;;24.50;13.13;;;-0.20;99.90;;;;;;5066191;28;20013;-74
2023/12/02 06:07:02;;;;;;;32.65;17.10;;;-0.20;99.90;;;;;;5065816;28;20016;-73
2023/12/02 06:09:27;;;;;;;28.20;12.48;;;-0.20;99.90;;;;;;5049333;28;20024;-74
2023/12/02 06:11:53;;;;;;;27.33;13.95;;;-0.20;99.90;;;;;;5067461;28;20107;-74
2023/12/02 06:14:19;;;;;;;25.58;12.88;;;-0.20;99.90;;;;;;5064871;28;20376;-74
2023/12/02 06:16:46;;;;;;;28.40;13.60;;;-0.20;99.90;;;;;;5067192;28;20035;-73
2023/12/02 06:19:11;;;;;;;31.52;15.75;;;-0.10;99.90;;;;;;5060672;28;20017;-74
2023/12/02 06:21:37;;;;;;;26.83;14.25;;;-0.10;99.90;;;;;;5065004;28;20025;-74
2023/12/02 06:24:04;;;;;;;29.48;14.43;;;-0.10;99.90;;;;;;5065338;28;20639;-73
2023/12/02 06:26:29;;;;;;;29.65;14.73;;;-0.20;99.90;;;;;;5064985;28;20024;-74
2023/12/02 06:28:55;;;;;;;28.92;14.43;;;-0.20;99.90;;;;;;5063658;28;20024;-74
2023/12/02 06:31:21;;;;;;;29.77;13.88;;;-0.20;99.90;;;;;;5063698;28;20040;-74
2023/12/02 06:33:46;;;;;;;31.80;14.35;;;-0.20;99.90;;;;;;5062916;28;20023;-74
2023/12/02 06:36:12;;;;;;;29.25;14.15;;;-0.20;99.90;;;;;;5045406;28;20029;-74
2023/12/02 06:38:38;;;;;;;28.38;14.52;;;-0.20;99.90;;;;;;5064926;28;20024;-73
2023/12/02 06:41:04;;;;;;;27.30;13.50;;;-0.20;99.90;;;;;;5065544;28;20033;-74
2023/12/02 06:43:30;;;;;;;29.35;14.52;;;-0.20;99.90;;;;;;5042214;28;20024;-74
2023/12/02 06:45:55;;;;;;;27.80;14.95;;;-0.20;99.90;;;;;;5064559;28;20021;-74
2023/12/02 06:48:21;;;;;;;29.25;14.38;;;-0.20;99.90;;;;;;5066170;28;20020;-73
2023/12/02 06:50:47;;;;;;;29.98;13.38;;;-0.20;99.90;;;;;;5064185;28;20028;-73
2023/12/02 06:53:15;;;;;;;28.35;14.15;;;-0.20;99.90;;;;;;5064294;28;20032;-73
2023/12/02 06:55:44;;;;;;;32.67;15.05;;;-0.20;99.90;;;;;;5066513;28;20073;-74
2023/12/02 06:58:10;;;;;;;30.25;13.77;;;-0.20;99.90;;;;;;5047059;28;20025;-74
2023/12/02 07:00:36;;;;;;;26.80;13.90;;;-0.20;99.90;;;;;;5066099;28;20024;-74
2023/12/02 07:03:01;;;;;;;28.08;14.15;;;-0.10;99.90;;;;;;5064418;28;20035;-73
2023/12/02 07:05:27;;;;;;;28.38;14.18;;;-0.10;99.90;;;;;;5066483;28;20035;-73
2023/12/02 07:07:52;;;;;;;29.20;14.23;;;0.00;99.90;;;;;;5064314;28;20507;-73
2023/12/02 07:10:18;;;;;;;28.35;15.27;;;-0.10;99.90;;;;;;5066263;28;20440;-74
2023/12/02 07:12:44;;;;;;;27.80;13.95;;;-0.10;99.90;;;;;;5063582;28;20025;-73
2023/12/02 07:15:10;;;;;;;26.40;13.32;;;-0.10;99.90;;;;;;5065879;28;20025;-74
2023/12/02 07:17:36;;;;;;;28.00;14.38;;;-0.10;99.90;;;;;;5043780;28;20492;-73
2023/12/02 07:20:03;;;;;;;25.10;13.95;;;-0.10;99.90;;;;;;5066498;28;20013;-74
2023/12/02 07:22:28;;;;;;;30.48;15.93;;;-0.10;99.90;;;;;;5065406;28;20031;-74
2023/12/02 07:24:54;;;;;;;28.00;13.80;;;-0.10;99.90;;;;;;5065575;28;20020;-74
2023/12/02 07:27:20;;;;;;;30.40;14.88;;;-0.10;99.90;;;;;;5066397;28;20474;-73
2023/12/02 07:29:45;;;;;;;27.13;14.20;;;-0.10;99.90;;;;;;5065044;28;20106;-73
2023/12/02 07:32:11;;;;;;;30.20;16.15;;;-0.10;99.90;;;;;;5064712;28;20182;-73
2023/12/02 07:34:36;;;;;;;28.15;14.13;;;0.00;99.90;;;;;;5064354;28;20020;-73
2023/12/02 07:37:03;;;;;;;25.95;13.07;;;-0.10;99.90;;;;;;5065784;28;20024;-73
2023/12/02 07:39:28;;;;;;;25.70;13.38;;;0.00;99.90;;;;;;5065320;28;20032;-73
2023/12/02 07:41:54;;;;;;;28.67;14.18;;;0.00;99.90;;;;;;5062618;28;20367;-74
2023/12/02 07:44:20;;;;;;;27.45;13.68;;;0.00;99.90;;;;;;5041945;28;20040;-73
2023/12/02 07:46:45;;;;;;;24.48;13.48;;;0.00;99.90;;;;;;5060828;28;20021;-73
2023/12/02 07:49:11;;;;;;;26.98;13.55;;;0.00;99.90;;;;;;5044939;28;20032;-74
2023/12/02 07:51:37;;;;;;;27.85;13.60;;;0.00;99.90;;;;;;5066037;28;20506;-74
2023/12/02 07:54:03;;;;;;;27.58;14.77;;;0.10;99.90;;;;;;5065174;28;20029;-73
2023/12/02 07:56:29;;;;;;;24.50;13.27;;;0.10;99.90;;;;;;5060467;28;20787;-74
2023/12/02 07:58:55;;;;;;;24.92;12.90;;;0.10;99.90;;;;;;5062902;28;20016;-74
2023/12/02 08:01:21;;;;;;;23.38;12.85;;;0.10;99.90;;;;;;5047789;28;20100;-74
2023/12/02 08:03:47;;;;;;;24.42;12.95;;;0.20;99.90;;;;;;5064080;28;20020;-73
2023/12/02 08:06:13;;;;;;;25.83;14.40;;;0.20;99.90;;;;;;5066105;28;20024;-74
2023/12/02 08:08:38;;;;;;;22.40;12.52;;;0.20;99.90;;;;;;5065388;28;20033;-76
2023/12/02 08:11:05;;;;;;;23.85;12.73;;;0.20;99.90;;;;;;5064558;28;20021;-74
2023/12/02 08:13:31;;;;;;;27.55;15.15;;;0.10;99.90;;;;;;5065442;28;20020;-74
2023/12/02 08:15:57;;;;;;;26.15;13.35;;;0.10;99.90;;;;;;5065356;28;20020;-74
2023/12/02 08:18:22;;;;;;;28.33;14.50;;;0.10;99.90;;;;;;5046699;28;20542;-74
2023/12/02 08:20:48;;;;;;;28.67;14.05;;;0.10;99.90;;;;;;5063475;28;20079;-73
2023/12/02 08:23:15;;;;;;;26.05;13.30;;;0.20;99.90;;;;;;5064425;28;20024;-74
2023/12/02 08:25:41;;;;;;;22.00;11.43;;;0.10;99.90;;;;;;5046724;28;20070;-74
2023/12/02 08:28:07;;;;;;;25.02;12.80;;;0.20;99.90;;;;;;5046826;28;20021;-73
2023/12/02 08:30:32;;;;;;;28.02;14.23;;;0.30;99.90;;;;;;5063735;28;20024;-73
2023/12/02 08:32:58;;;;;;;23.25;12.45;;;0.30;99.90;;;;;;5064585;28;20036;-73
2023/12/02 08:35:23;;;;;;;25.95;13.18;;;0.30;99.90;;;;;;5062792;28;20028;-74
2023/12/02 08:37:49;;;;;;;27.38;13.23;;;0.30;99.90;;;;;;5065236;28;20051;-74
2023/12/02 08:40:15;;;;;;;25.98;14.02;;;0.40;99.90;;;;;;5063201;28;20040;-74
2023/12/02 08:42:41;;;;;;;28.52;14.70;;;0.30;99.90;;;;;;5063554;28;20017;-74
2023/12/02 08:45:07;;;;;;;24.67;13.52;;;0.40;99.90;;;;;;5063283;28;20044;-74
2023/12/02 08:47:32;;;;;;;24.63;14.07;;;0.40;99.90;;;;;;5062658;28;20028;-73
2023/12/02 08:49:58;;;;;;;23.90;12.98;;;0.40;99.90;;;;;;5045445;28;20585;-74
2023/12/02 08:52:24;;;;;;;24.02;12.93;;;0.40;99.90;;;;;;5065455;28;20028;-74
2023/12/02 08:54:49;;;;;;;24.85;13.20;;;0.40;99.90;;;;;;5060336;28;20021;-73
2023/12/02 08:57:15;;;;;;;25.00;13.75;;;0.50;99.90;;;;;;5059196;28;20026;-74
2023/12/02 08:59:41;;;;;;;29.67;15.50;;;0.60;99.90;;;;;;5059632;28;20042;-74
2023/12/02 09:02:08;;;;;;;24.27;13.52;;;0.50;99.90;;;;;;5063341;28;20099;-74
2023/12/02 09:04:34;;;;;;;27.42;13.60;;;0.50;99.90;;;;;;5063877;28;20025;-74
2023/12/02 09:06:59;;;;;;;25.48;13.98;;;0.60;99.90;;;;;;5059878;28;20025;-73
2023/12/02 09:09:25;;;;;;;25.23;13.55;;;0.60;99.90;;;;;;5061064;28;20142;-74
2023/12/02 09:11:51;;;;;;;24.95;14.07;;;0.70;99.90;;;;;;5067970;28;20078;-73
2023/12/02 09:14:17;;;;;;;30.65;15.82;;;0.80;99.90;;;;;;5065459;28;20025;-74
2023/12/02 09:16:47;;;;;;;29.50;16.52;;;0.80;99.90;;;;;;5066471;28;20068;-74
2023/12/02 09:19:43;;;;;;;28.23;14.73;;;0.80;99.90;;;;;;5066308;28;20044;-74
2023/12/02 09:22:31;;;;;;;29.25;14.48;;;0.80;99.90;;;;;;5068714;28;20024;-73
2023/12/02 09:24:57;;;;;;;29.35;15.70;;;0.80;99.90;;;;;;5049213;28;20028;-74
2023/12/02 09:28:05;;;;;;;26.35;14.65;;;0.90;99.90;;;;;;5048585;28;20094;-74
2023/12/02 09:30:34;;;;;;;28.50;14.85;;;1.00;99.90;;;;;;4985713;28;20035;-73
2023/12/02 09:33:00;;;;;;;28.30;14.13;;;1.10;99.90;;;;;;4985771;28;20035;-74
2023/12/02 09:35:27;;;;;;;27.13;14.35;;;1.10;99.90;;;;;;5008000;28;20029;-74
2023/12/02 09:37:55;;;;;;;32.53;16.42;;;1.20;99.90;;;;;;5068012;28;20024;-74
2023/12/02 09:40:20;;;;;;;27.17;14.73;;;1.20;99.90;;;;;;5049139;28;20044;-74
2023/12/02 09:42:51;;;;;;;29.50;15.48;;;1.30;99.90;;;;;;5066631;28;20393;-74
2023/12/02 09:45:20;;;;;;;30.13;15.10;;;1.40;99.90;;;;;;5067436;28;20504;-74
2023/12/02 09:48:05;;;;;;;29.23;15.55;;;1.40;99.90;;;;;;5066234;28;20030;-75
2023/12/02 09:50:51;;;;;;;30.88;15.15;;;1.40;99.90;;;;;;5063932;28;20021;-75
2023/12/02 09:53:45;;;;;;;29.63;15.93;;;1.40;99.90;;;;;;5062697;28;20058;-74
2023/12/02 09:56:20;;;;;;;32.85;16.58;;;1.30;99.90;;;;;;5066458;28;20040;-74
2023/12/02 09:58:47;;;;;;;30.42;16.10;;;1.30;99.90;;;;;;5058210;28;20516;-76
2023/12/02 10:01:44;;;;;;;33.10;17.52;;;1.30;99.90;;;;;;5043517;28;20646;-73
2023/12/02 10:04:10;;;;;;;27.98;15.23;;;1.40;99.90;;;;;;5050195;28;20044;-75
2023/12/02 10:07:01;;;;;;;31.23;16.60;;;1.40;99.90;;;;;;5068807;28;20482;-74
2023/12/02 10:09:39;;;;;;;30.38;16.08;;;1.50;99.90;;;;;;5064637;28;20082;-75
2023/12/02 10:12:46;;;;;;;33.75;17.80;;;1.50;99.90;;;;;;5068574;28;20067;-73
2023/12/02 10:15:12;;;;;;;30.98;15.65;;;1.60;99.90;;;;;;5037575;28;20047;-73
2023/12/02 10:18:07;;;;;;;38.50;18.90;;;1.70;99.90;;;;;;5068075;28;20032;-76
2023/12/02 10:20:35;;;;;;;34.75;18.17;;;1.70;99.90;;;;;;5060173;28;20809;-75
2023/12/02 10:23:24;;;;;;;31.52;15.65;;;1.70;99.90;;;;;;5050304;28;20025;-75
2023/12/02 10:26:01;;;;;;;34.45;17.67;;;1.80;99.90;;;;;;5068059;28;20048;-76
2023/12/02 10:28:42;;;;;;;32.42;17.83;;;1.90;99.90;;;;;;5061517;28;20473;-73
2023/12/02 10:31:16;;;;;;;33.70;16.83;;;1.90;99.90;;;;;;5062150;28;20016;-76
2023/12/02 10:34:07;;;;;;;30.25;16.75;;;1.90;99.90;;;;;;5067396;28;20025;-74
2023/12/02 10:36:33;;;;;;;29.85;15.85;;;2.00;99.90;;;;;;5049475;28;20032;-73
2023/12/02 10:39:19;;;;;;;30.85;15.68;;;1.90;99.90;;;;;;5067156;28;20027;-76
2023/12/02 10:41:51;;;;;;;32.72;17.80;;;2.00;99.90;;;;;;5067898;28;20110;-76
2023/12/02 10:44:21;;;;;;;33.13;17.38;;;1.90;99.90;;;;;;5067163;28;20516;-75
2023/12/02 10:46:48;;;;;;;32.05;18.08;;;2.00;99.90;;;;;;5048270;28;20029;-75
2023/12/02 10:49:14;;;;;;;32.78;17.63;;;2.00;99.90;;;;;;5048429;28;20026;-75
2023/12/02 10:51:42;;;;;;;35.88;18.65;;;1.90;99.90;;;;;;5066054;28;20028;-75
2023/12/02 10:54:09;;;;;;;34.17;18.20;;;1.90;99.90;;;;;;5065967;28;20024;-75
2023/12/02 10:56:38;;;;;;;34.53;17.75;;;2.00;99.90;;;;;;5065990;28;20029;-76
2023/12/02 10:59:05;;;;;;;35.55;17.60;;;2.00;99.90;;;;;;5047942;28;20037;-75
2023/12/02 11:01:39;;;;;;;34.03;19.70;;;2.00;99.90;;;;;;5060851;28;20024;-76
2023/12/02 11:04:23;;;;;;;30.92;16.75;;;2.00;99.90;;;;;;5064964;28;20024;-76
2023/12/02 11:07:03;;;;;;;31.55;17.23;;;2.00;99.90;;;;;;5067235;28;20115;-75
2023/12/02 11:09:47;;;;;;;32.40;16.83;;;2.00;99.90;;;;;;5068270;28;20037;-74
2023/12/02 11:12:31;;;;;;;34.88;18.38;;;2.00;99.90;;;;;;5067076;28;20036;-75
2023/12/02 11:15:09;;;;;;;33.70;18.98;;;2.00;99.90;;;;;;5059461;28;20074;-75
2023/12/02 11:18:00;;;;;;;35.88;18.63;;;2.00;99.90;;;;;;5063054;28;20027;-73
2023/12/02 11:20:51;;;;;;;33.50;15.95;;;2.10;99.90;;;;;;5048932;28;20025;-74
2023/12/02 11:23:20;;;;;;;;;;;2.10;99.90;;;;;;5064055;28;20493;-75
2023/12/02 11:26:11;;;;;;;32.28;16.50;;;2.00;99.90;;;;;;5067313;28;19915;-73
2023/12/02 11:28:47;;;;;;;39.67;19.25;;;1.90;99.90;;;;;;5057704;28;20107;-74
2023/12/02 11:31:25;;;;;;;31.65;16.70;;;1.90;99.90;;;;;;5066196;28;20036;-75
2023/12/02 11:34:27;;;;;;;38.65;17.27;;;1.80;99.90;;;;;;5048509;28;20358;-75
2023/12/02 11:37:15;;;;;;;36.60;19.58;;;1.80;99.90;;;;;;5059400;28;20029;-75
2023/12/02 11:40:12;;;;;;;35.90;18.60;;;1.80;99.90;;;;;;5043439;28;20122;-76
2023/12/02 11:43:03;;;;;;;34.83;17.50;;;1.70;99.90;;;;;;5063401;28;20041;-75
2023/12/02 11:45:36;;;;;;;31.13;15.43;;;1.70;99.90;;;;;;5016431;28;20025;-76
2023/12/02 11:48:20;;;;;;;31.45;16.13;;;1.70;99.90;;;;;;5066195;28;20024;-76
2023/12/02 11:50:54;;;;;;;34.33;17.88;;;1.80;99.90;;;;;;5065104;28;20056;-75
2023/12/02 11:53:29;;;;;;;34.60;17.40;;;1.80;99.90;;;;;;5047327;28;20206;-76
2023/12/02 11:56:18;;;;;;;30.25;17.10;;;1.80;99.90;;;;;;5064480;28;20024;-75
2023/12/02 11:58:52;;;;;;;24.88;13.38;;;1.90;99.90;;;;;;5066265;28;20031;-76
2023/12/02 12:01:36;;;;;;;61.17;22.65;;;1.90;99.90;;;;;;5048338;28;20517;-75
2023/12/02 12:04:29;;;;;;;51.08;19.83;;;1.90;99.90;;;;;;5066214;28;20038;-75
2023/12/02 12:07:14;;;;;;;38.45;19.70;;;1.90;99.90;;;;;;5064888;28;20036;-76
2023/12/02 12:10:03;;;;;;;85.88;32.80;;;1.80;99.90;;;;;;5054627;28;20028;-76
2023/12/02 12:12:31;;;;;;;164.82;37.92;;;1.80;99.90;;;;;;5048230;28;20136;-76
2023/12/02 12:15:00;;;;;;;164.18;38.08;;;1.80;99.90;;;;;;5076087;28;20020;-76
2023/12/02 12:17:26;;;;;;;339.45;71.60;;;1.80;99.90;;;;;;5066676;28;20397;-76
2023/12/02 12:19:52;;;;;;;383.63;80.85;;;1.80;99.90;;;;;;5048485;28;20021;-76
2023/12/02 12:22:18;;;;;;;694.15;152.50;;;1.80;99.90;;;;;;5061735;28;20563;-76
2023/12/02 12:24:45;;;;;;;159.00;47.17;;;1.80;99.90;;;;;;5064984;28;20449;-75
2023/12/02 12:27:10;;;;;;;305.42;68.35;;;1.80;99.90;;;;;;5066782;28;20039;-76
2023/12/02 12:29:52;;;;;;;186.20;49.08;;;1.80;99.90;;;;;;5065199;28;20081;-76
2023/12/02 12:32:18;;;;;;;49.25;21.85;;;1.80;99.90;;;;;;5063511;28;20045;-76
2023/12/02 12:34:44;;;;;;;36.70;18.98;;;1.80;99.90;;;;;;5065507;28;20047;-76
2023/12/02 12:37:16;;;;;;;38.22;19.23;;;1.90;99.90;;;;;;5066239;28;20063;-76
2023/12/02 12:39:44;;;;;;;36.53;19.35;;;1.80;99.90;;;;;;5064823;28;20114;-75
2023/12/02 12:42:10;;;;;;;39.53;17.65;;;1.80;99.90;;;;;;5064790;28;20555;-76
2023/12/02 12:44:38;;;;;;;41.72;19.35;;;1.80;99.90;;;;;;5067278;28;20517;-76